Time;durP1;ratioP1;P1;durP2;ratioP2;P2;SDS_P1;SDS_P2;PMS_P1;PMS_P2;Temp;Humidity;BMP_temperature;BMP_pressure;BME280_temperature;BME280_humidity;BME280_pressure;Samples;Min_cycle;Max_cycle;Signal;HPM_P1;HPM_P2
2021/12/10 00:01:40;;;;;;;11.75;7.43;;;;;;;0.95;87.09;99691.75;10503345;28;20135;-77
2021/12/10 00:06:44;;;;;;;12.87;8.37;;;;;;;1.03;87.01;99693.16;10522283;28;20043;-78
2021/12/10 00:11:51;;;;;;;13.52;6.03;;;;;;;1.11;86.30;99666.22;10521200;28;20460;-77
2021/12/10 00:16:52;;;;;;;9.88;6.35;;;;;;;1.31;85.05;99674.38;10507218;28;20497;-77
2021/12/10 00:21:53;;;;;;;13.10;6.20;;;;;;;1.27;85.03;99665.56;10538377;28;20050;-77
2021/12/10 00:26:54;;;;;;;15.60;8.02;;;;;;;1.20;85.04;99645.31;10521195;28;20429;-76
2021/12/10 00:32:00;;;;;;;15.82;6.55;;;;;;;1.23;84.45;99624.91;10521019;28;20115;-76
2021/12/10 00:37:03;;;;;;;8.80;5.18;;;;;;;1.09;84.16;99616.25;10520474;28;20039;-76
2021/12/10 00:42:10;;;;;;;11.25;4.50;;;;;;;1.13;84.14;99604.47;10503802;28;20040;-76
2021/12/10 00:47:11;;;;;;;8.50;4.80;;;;;;;1.01;84.01;99592.56;10538534;28;20119;-76
2021/12/10 00:52:12;;;;;;;13.27;5.80;;;;;;;1.10;84.45;99583.66;10537326;28;20107;-77
2021/12/10 00:57:13;;;;;;;25.23;6.13;;;;;;;1.01;84.46;99565.91;10519404;28;20027;-77
2021/12/10 01:02:16;;;;;;;12.80;5.93;;;;;;;0.93;84.91;99556.78;10518579;28;20028;-77
2021/12/10 01:07:20;;;;;;;10.70;5.45;;;;;;;0.75;84.14;99559.06;10538144;28;20028;-77
2021/12/10 01:12:33;;;;;;;14.27;5.03;;;;;;;0.45;85.42;99540.78;10536319;28;20028;-77
2021/12/10 01:28:15;;;;;;;12.45;4.85;;;;;;;0.27;86.31;99502.75;10523139;28;20028;-77
2021/12/10 01:33:17;;;;;;;22.80;6.38;;;;;;;0.33;86.73;99494.53;10536529;28;20495;-77
2021/12/10 01:38:18;;;;;;;13.82;6.75;;;;;;;0.14;86.31;99478.75;10484846;28;20043;-77
2021/12/10 01:43:25;;;;;;;9.77;4.87;;;;;;;-0.04;86.72;99465.53;10518835;28;20036;-77
2021/12/10 01:48:29;;;;;;;20.67;8.70;;;;;;;-0.04;87.00;99455.25;10534941;28;20487;-77
2021/12/10 01:53:32;;;;;;;17.20;6.88;;;;;;;-0.11;86.84;99454.75;10501278;28;20032;-77
2021/12/10 01:58:33;;;;;;;12.32;6.32;;;;;;;0.05;87.39;99441.22;10536084;28;20058;-77
2021/12/10 02:03:34;;;;;;;8.70;5.28;;;;;;;-0.05;86.53;99439.75;10501930;28;20036;-77
2021/12/10 02:08:35;;;;;;;19.60;7.03;;;;;;;0.00;86.72;99417.78;10522781;28;20032;-77
2021/12/10 02:13:36;;;;;;;22.92;10.80;;;;;;;-0.18;86.87;99418.34;10509390;28;20039;-78
2021/12/10 02:18:36;;;;;;;17.25;9.55;;;;;;;-0.07;87.77;99416.47;10518322;28;20468;-77
2021/12/10 02:23:39;;;;;;;19.00;10.45;;;;;;;0.03;87.29;99386.22;10494098;28;20114;-77
2021/12/10 02:28:40;;;;;;;14.48;6.85;;;;;;;-0.05;86.82;99381.44;10509276;28;20442;-77
2021/12/10 02:33:40;;;;;;;16.58;9.30;;;;;;;0.06;86.00;99369.31;10524776;28;20040;-77
2021/12/10 02:38:43;;;;;;;15.52;8.45;;;;;;;-0.07;86.59;99371.88;10487456;28;20081;-77
2021/12/10 02:43:44;;;;;;;26.30;13.05;;;;;;;-0.05;86.20;99360.00;10520133;28;20055;-76
2021/12/10 02:48:44;;;;;;;16.10;9.75;;;;;;;0.02;86.88;99349.31;10503915;28;20047;-76
2021/12/10 02:53:45;;;;;;;18.38;8.10;;;;;;;0.09;86.32;99328.34;10524064;28;20050;-77
2021/12/10 02:58:48;;;;;;;11.50;7.60;;;;;;;0.03;85.58;99312.50;10507990;28;20032;-77
2021/12/10 03:03:49;;;;;;;13.57;7.43;;;;;;;0.03;86.45;99309.03;10532855;28;20032;-76
2021/12/10 03:08:50;;;;;;;16.48;9.02;;;;;;;0.05;86.25;99298.06;10523446;28;20034;-77
2021/12/10 03:13:51;;;;;;;15.15;8.85;;;;;;;0.08;85.41;99290.53;10507399;28;20475;-77
2021/12/10 03:18:51;;;;;;;13.45;7.35;;;;;;;0.11;84.95;99288.16;10542059;28;20059;-76
2021/12/10 03:23:52;;;;;;;11.77;5.95;;;;;;;0.10;84.96;99281.25;10507363;28;20545;-77
2021/12/10 03:28:52;;;;;;;12.05;4.68;;;;;;;0.18;84.76;99266.28;10523417;28;20063;-77
2021/12/10 03:33:54;;;;;;;9.75;3.67;;;;;;;0.14;84.59;99257.47;10506844;28;20028;-76
2021/12/10 03:38:54;;;;;;;13.25;5.15;;;;;;;0.32;84.56;99245.66;10522456;28;20036;-76
2021/12/10 03:43:55;;;;;;;10.50;4.30;;;;;;;0.34;83.46;99244.06;10480111;28;20040;-77
2021/12/10 03:48:55;;;;;;;9.02;3.45;;;;;;;0.28;84.31;99234.31;10485979;28;20033;-77
2021/12/10 03:53:56;;;;;;;10.80;3.85;;;;;;;0.24;83.68;99227.19;10496464;28;20037;-77
2021/12/10 03:58:59;;;;;;;14.73;5.70;;;;;;;0.27;84.10;99209.34;10480655;28;20046;-77
2021/12/10 04:04:00;;;;;;;8.48;3.15;;;;;;;0.38;83.79;99204.84;10497218;28;20159;-76
2021/12/10 04:09:01;;;;;;;6.90;3.37;;;;;;;0.47;83.42;99189.09;10480159;28;20119;-77
2021/12/10 04:14:01;;;;;;;14.82;4.50;;;;;;;0.45;83.49;99188.13;10496897;28;20043;-77
2021/12/10 04:19:04;;;;;;;14.13;4.82;;;;;;;0.48;83.40;99178.88;10479088;28;20123;-76
2021/12/10 04:24:04;;;;;;;;;;;;;;;0.60;83.33;99170.13;10494771;28;20091;-77
2021/12/10 04:29:05;;;;;;;8.52;2.65;;;;;;;0.65;83.10;99163.56;10496500;28;19920;-77
2021/12/10 04:34:05;;;;;;;9.68;3.20;;;;;;;0.76;82.61;99159.06;10494828;28;20028;-77
2021/12/10 04:39:06;;;;;;;6.32;2.20;;;;;;;0.86;82.07;99149.38;10478600;28;20539;-77
2021/12/10 04:44:07;;;;;;;4.85;2.60;;;;;;;0.93;82.35;99136.84;10478673;28;20527;-77
2021/12/10 04:49:12;;;;;;;7.97;3.10;;;;;;;0.97;81.86;99125.94;10445528;28;20039;-76
2021/12/10 04:54:12;;;;;;;8.40;3.72;;;;;;;1.01;82.28;99117.56;10461093;28;20082;-76
2021/12/10 04:59:15;;;;;;;6.38;3.58;;;;;;;1.05;82.40;99110.94;10480144;28;20085;-77
2021/12/10 05:04:16;;;;;;;5.32;2.05;;;;;;;1.15;81.78;99090.91;10477290;28;20056;-77
2021/12/10 05:09:18;;;;;;;5.88;2.40;;;;;;;1.20;81.53;99078.28;10494573;28;20060;-76
2021/12/10 05:14:18;;;;;;;11.48;3.22;;;;;;;1.27;81.36;99066.63;10476877;28;20127;-76
2021/12/10 05:19:21;;;;;;;5.80;2.83;;;;;;;1.20;82.81;99057.69;10477943;28;20170;-77
2021/12/10 05:24:21;;;;;;;7.95;2.00;;;;;;;1.15;82.97;99061.69;10481147;28;20085;-77
2021/12/10 05:29:22;;;;;;;13.57;3.20;;;;;;;1.11;83.96;99054.59;10481774;28;20438;-77
2021/12/10 05:34:22;;;;;;;14.40;3.08;;;;;;;1.16;83.49;99038.56;10494057;28;20036;-77
2021/12/10 05:39:23;;;;;;;8.35;2.70;;;;;;;1.23;83.46;99033.75;10452182;28;20033;-77
2021/12/10 05:44:24;;;;;;;13.15;2.75;;;;;;;1.29;83.09;99027.25;10484197;28;20048;-77
2021/12/10 05:49:25;;;;;;;9.77;2.08;;;;;;;1.35;82.10;99018.97;10501926;28;20040;-78
2021/12/10 05:54:25;;;;;;;7.68;1.85;;;;;;;1.40;81.49;99014.94;10479154;28;20059;-78
2021/12/10 05:59:26;;;;;;;8.30;3.25;;;;;;;1.44;81.29;99000.53;10496885;28;20040;-78
2021/12/10 06:04:28;;;;;;;5.88;1.55;;;;;;;1.45;80.95;99000.59;10483946;28;20066;-77
2021/12/10 06:09:29;;;;;;;7.70;2.08;;;;;;;1.52;80.63;98985.47;10499846;28;20024;-76
2021/12/10 06:14:29;;;;;;;12.73;3.15;;;;;;;1.55;80.51;98989.13;10487223;28;20483;-76
2021/12/10 06:19:30;;;;;;;4.55;2.35;;;;;;;1.60;80.15;98985.09;10498756;28;20045;-79
2021/12/10 06:24:30;;;;;;;11.32;3.63;;;;;;;1.60;80.43;98981.59;10503128;28;20491;-78
2021/12/10 06:29:31;;;;;;;23.83;2.83;;;;;;;1.66;79.87;98968.16;10500140;28;20118;-77
2021/12/10 06:34:32;;;;;;;11.30;4.55;;;;;;;1.71;79.66;98972.75;10473070;28;20497;-77
2021/12/10 06:39:32;;;;;;;9.82;4.82;;;;;;;1.75;78.83;98966.94;10497881;28;20097;-78
2021/12/10 06:44:33;;;;;;;9.15;2.90;;;;;;;1.75;78.96;98964.34;10472249;28;20047;-78
2021/12/10 06:49:33;;;;;;;7.15;3.65;;;;;;;1.78;78.79;98963.66;10478847;28;20032;-78
2021/12/10 06:54:35;;;;;;;9.48;3.88;;;;;;;1.84;77.94;98965.66;10480334;28;20115;-78
2021/12/10 06:59:35;;;;;;;6.60;2.70;;;;;;;1.83;77.79;98959.63;10495743;28;20028;-77
2021/12/10 07:04:40;;;;;;;14.15;2.70;;;;;;;1.89;77.63;98962.50;10496919;28;20055;-78
2021/12/10 07:09:41;;;;;;;9.75;3.05;;;;;;;1.89;76.89;98965.09;10482265;28;20431;-78
2021/12/10 07:14:43;;;;;;;11.43;2.88;;;;;;;1.92;77.38;98958.31;10481791;28;20119;-77
2021/12/10 07:19:44;;;;;;;20.45;4.53;;;;;;;1.90;76.89;98963.38;10497565;28;20033;-75
2021/12/10 07:24:45;;;;;;;7.47;3.03;;;;;;;1.89;77.11;98954.78;10496701;28;20051;-76
2021/12/10 07:29:47;;;;;;;6.20;1.80;;;;;;;1.93;76.67;98952.34;10477492;28;20466;-77
2021/12/10 07:34:47;;;;;;;;;;;;;;;1.95;76.99;98955.91;10479885;28;20048;-78
2021/12/10 07:39:48;;;;;;;11.85;3.67;;;;;;;2.00;76.55;98950.13;10496725;28;19923;-77
2021/12/10 07:44:50;;;;;;;5.57;2.60;;;;;;;1.97;76.90;98947.41;10539369;28;20032;-77
2021/12/10 07:49:51;;;;;;;;;;;;;;;1.97;76.39;98950.00;10513128;28;20036;-76
2021/12/10 07:54:51;;;;;;;7.57;3.80;;;;;;;1.97;76.37;98941.38;10500619;28;19994;-75
2021/12/10 07:59:52;;;;;;;12.05;6.70;;;;;;;2.01;76.22;98951.03;10503918;28;20444;-76
2021/12/10 08:04:52;;;;;;;8.80;4.88;;;;;;;1.97;76.34;98942.25;10535677;28;20126;-77
2021/12/10 08:09:53;;;;;;;8.30;4.22;;;;;;;2.01;75.94;98940.72;10539507;28;20024;-77
2021/12/10 08:14:55;;;;;;;13.00;4.18;;;;;;;2.04;76.45;98943.47;10539801;28;20075;-77
2021/12/10 08:19:55;;;;;;;10.88;4.13;;;;;;;2.04;76.63;98946.91;10538570;28;20039;-77
2021/12/10 08:24:56;;;;;;;8.95;4.07;;;;;;;2.13;76.07;98943.03;10503715;28;20056;-77
2021/12/10 08:30:02;;;;;;;9.25;4.35;;;;;;;2.12;76.26;98939.56;10538575;28;20028;-77
2021/12/10 08:35:04;;;;;;;7.60;3.47;;;;;;;2.15;76.11;98955.22;10520678;28;20039;-76
2021/12/10 08:40:07;;;;;;;7.22;3.90;;;;;;;2.16;76.42;98953.50;10468375;28;20126;-77
2021/12/10 08:45:08;;;;;;;7.35;2.88;;;;;;;2.18;76.14;98949.31;10487797;28;20035;-76
2021/12/10 08:50:09;;;;;;;10.80;3.38;;;;;;;2.22;75.95;98945.19;10478644;28;20492;-76
2021/12/10 08:55:11;;;;;;;10.38;3.05;;;;;;;2.23;76.12;98939.22;10463944;28;20024;-76
2021/12/10 09:00:12;;;;;;;7.15;3.35;;;;;;;2.25;76.09;98941.06;10510330;28;20480;-76
2021/12/10 09:05:13;;;;;;;12.15;4.78;;;;;;;2.34;76.28;98946.69;10502062;28;20036;-76
2021/12/10 09:10:20;;;;;;;4.95;2.28;;;;;;;2.38;75.58;98946.81;10497074;28;20044;-76
2021/12/10 09:15:23;;;;;;;6.68;2.75;;;;;;;2.46;75.20;98953.25;10517205;28;20126;-75
2021/12/10 09:20:32;;;;;;;11.63;3.22;;;;;;;2.44;75.43;98962.63;10506977;28;20365;-76
2021/12/10 09:25:33;;;;;;;6.30;3.47;;;;;;;2.50;74.76;98957.75;10519525;28;20487;-76
2021/12/10 09:30:35;;;;;;;5.50;2.40;;;;;;;2.54;74.92;98964.84;10509472;28;20062;-76
2021/12/10 09:35:36;;;;;;;4.30;2.55;;;;;;;2.56;74.45;98959.78;10523663;28;20127;-76
2021/12/10 09:40:44;;;;;;;6.07;2.45;;;;;;;2.66;74.84;98962.00;10485754;28;20040;-76
2021/12/10 09:45:45;;;;;;;6.13;3.45;;;;;;;2.75;73.83;98965.03;10512416;28;20028;-76
2021/12/10 09:51:07;;;;;;;10.00;3.38;;;;;;;2.88;73.46;98963.03;10505556;28;20048;-76
2021/12/10 09:56:08;;;;;;;5.30;2.47;;;;;;;2.85;72.81;98963.75;10529423;28;20036;-77
2021/12/10 10:01:20;;;;;;;8.90;3.05;;;;;;;2.92;72.17;98960.66;10516452;28;20126;-77
2021/12/10 10:06:20;;;;;;;6.87;2.47;;;;;;;2.94;72.90;98948.69;10499320;28;20031;-76
2021/12/10 10:11:24;;;;;;;7.43;2.38;;;;;;;2.92;72.79;98952.88;10499896;28;20031;-76
2021/12/10 10:16:25;;;;;;;6.85;2.60;;;;;;;2.99;71.95;98948.00;10499150;28;20816;-76
2021/12/10 10:21:32;;;;;;;8.63;2.20;;;;;;;2.94;71.90;98950.41;10497124;28;20074;-76
2021/12/10 10:26:36;;;;;;;3.70;1.98;;;;;;;3.14;72.00;98947.84;10503950;28;20037;-76
2021/12/10 10:31:39;;;;;;;5.93;1.92;;;;;;;3.12;71.13;98937.44;10493955;28;20098;-74
2021/12/10 10:36:39;;;;;;;9.38;2.10;;;;;;;3.16;71.54;98938.47;10539573;28;20475;-76
2021/12/10 10:41:42;;;;;;;8.93;2.30;;;;;;;3.21;71.55;98935.28;10487379;28;20067;-73
2021/12/10 10:46:42;;;;;;;11.07;2.60;;;;;;;3.29;70.55;98945.06;10518432;28;20042;-76
2021/12/10 10:51:43;;;;;;;7.63;2.03;;;;;;;3.28;70.63;98943.31;10484407;28;20067;-76
2021/12/10 10:56:45;;;;;;;4.57;2.40;;;;;;;3.32;70.32;98950.38;10536757;28;20060;-77
2021/12/10 11:01:57;;;;;;;6.72;2.78;;;;;;;3.46;70.50;98953.63;10533729;28;20031;-76
2021/12/10 11:07:19;;;;;;;6.28;2.33;;;;;;;3.45;70.78;98950.13;10504370;28;20028;-76
2021/12/10 11:12:32;;;;;;;8.48;2.22;;;;;;;3.47;71.35;98963.16;10523677;28;20099;-76
2021/12/10 11:17:33;;;;;;;8.50;3.13;;;;;;;3.18;71.60;98955.81;10520845;28;20126;-77
2021/12/10 11:22:33;;;;;;;9.13;3.08;;;;;;;2.81;73.45;98971.28;10536317;28;20073;-76
2021/12/10 11:27:36;;;;;;;4.40;2.60;;;;;;;2.58;75.36;98971.06;10503249;28;20019;-76
2021/12/10 11:32:51;;;;;;;8.82;3.83;;;;;;;2.22;77.42;98984.78;10530519;28;20028;-77
2021/12/10 11:37:56;;;;;;;6.30;2.60;;;;;;;1.93;79.48;98988.47;10495141;28;20046;-76
2021/12/10 11:43:02;;;;;;;7.57;4.13;;;;;;;1.77;80.76;98992.81;10519887;28;20063;-76
2021/12/10 11:48:08;;;;;;;6.15;3.10;;;;;;;1.58;81.68;98996.09;10496663;28;20028;-76
2021/12/10 11:53:17;;;;;;;9.65;4.20;;;;;;;1.59;82.73;98992.72;10520472;28;20027;-76
2021/12/10 11:58:17;;;;;;;11.00;3.20;;;;;;;1.72;83.50;98997.72;10481982;28;20031;-76
2021/12/10 12:03:20;;;;;;;7.97;3.17;;;;;;;1.73;83.51;99002.09;10496944;28;20060;-78
2021/12/10 12:08:21;;;;;;;7.85;3.22;;;;;;;1.71;82.96;99002.81;10506880;28;20024;-77
2021/12/10 12:13:30;;;;;;;5.97;2.38;;;;;;;1.69;82.84;99017.34;10528956;28;20107;-77
2021/12/10 12:18:34;;;;;;;5.35;2.85;;;;;;;1.67;83.66;99013.78;10520155;28;20035;-77
2021/12/10 12:29:01;;;;;;;8.70;2.92;;;;;;;1.76;82.78;99020.31;10533000;28;20058;-75
2021/12/10 12:34:09;;;;;;;8.32;3.47;;;;;;;1.79;82.89;99022.16;10495942;28;20068;-78
2021/12/10 12:39:15;;;;;;;10.13;3.13;;;;;;;1.82;82.90;99024.91;10520024;28;20056;-77
2021/12/10 12:44:19;;;;;;;8.65;3.50;;;;;;;1.68;83.20;99033.63;10468645;28;20036;-75
2021/12/10 12:49:20;;;;;;;31.83;11.25;;;;;;;1.52;84.03;99043.09;10489447;28;20452;-77
2021/12/10 12:54:20;;;;;;;9.52;3.67;;;;;;;1.52;84.30;99048.25;10475981;28;20111;-76
2021/12/10 12:59:22;;;;;;;10.25;3.15;;;;;;;1.37;84.88;99045.72;10489031;28;20403;-77
2021/12/10 13:04:33;;;;;;;8.87;4.30;;;;;;;1.36;85.00;99061.97;10478029;28;20032;-77
2021/12/10 13:09:45;;;;;;;7.60;3.63;;;;;;;1.42;85.13;99064.03;10487205;28;20037;-76
2021/12/10 13:14:58;;;;;;;6.65;3.85;;;;;;;1.32;85.12;99062.63;10494299;28;20040;-77
2021/12/10 13:20:00;;;;;;;11.57;4.38;;;;;;;1.39;85.78;99071.59;10475606;28;20051;-78
2021/12/10 13:25:03;;;;;;;7.55;3.63;;;;;;;1.21;85.42;99081.75;10474942;28;20052;-76
2021/12/10 13:30:05;;;;;;;9.20;5.13;;;;;;;1.20;85.75;99091.19;10469125;28;20057;-76
2021/12/10 13:35:06;;;;;;;13.13;3.72;;;;;;;1.23;85.87;99098.19;10483298;28;20093;-76
2021/12/10 13:40:07;;;;;;;7.57;4.65;;;;;;;1.25;85.91;99115.53;10462610;28;20078;-76
2021/12/10 13:45:08;;;;;;;7.90;4.70;;;;;;;1.34;86.19;99120.31;10501924;28;20492;-76
2021/12/10 13:50:16;;;;;;;9.02;4.13;;;;;;;1.33;86.00;99123.69;10500060;28;20032;-75
2021/12/10 13:55:27;;;;;;;9.82;4.63;;;;;;;1.36;86.59;99116.13;10513200;28;20522;-76
2021/12/10 14:00:27;;;;;;;7.95;3.88;;;;;;;1.41;85.83;99131.84;10512331;28;20384;-77
2021/12/10 14:05:30;;;;;;;20.23;8.38;;;;;;;1.41;86.33;99132.72;10525818;28;20035;-76
2021/12/10 14:10:33;;;;;;;6.15;3.75;;;;;;;1.43;86.19;99133.69;10493278;28;20038;-78
2021/12/10 14:15:44;;;;;;;;;;;;;;;1.37;86.57;99140.22;10505950;28;20052;-77
2021/12/10 14:20:53;;;;;;;11.70;4.78;;;;;;;1.36;86.93;99144.47;10490527;28;19955;-77
2021/12/10 14:25:59;;;;;;;10.55;5.28;;;;;;;1.41;86.69;99153.34;10507786;28;20043;-75
2021/12/10 14:31:03;;;;;;;10.27;5.18;;;;;;;1.37;87.07;99153.97;10501969;28;20028;-77
2021/12/10 14:36:04;;;;;;;10.68;4.78;;;;;;;1.33;86.92;99167.50;10524526;28;20028;-78
2021/12/10 14:41:17;;;;;;;9.68;4.15;;;;;;;1.30;86.94;99173.38;10541313;28;20044;-78
2021/12/10 14:46:43;;;;;;;10.75;4.95;;;;;;;1.23;87.00;99179.00;10473747;28;20028;-77
2021/12/10 14:51:44;;;;;;;17.23;5.22;;;;;;;1.20;87.21;99181.38;10488023;28;20036;-77
2021/12/10 14:56:53;;;;;;;11.63;5.30;;;;;;;1.16;87.10;99195.75;10507164;28;20118;-77
2021/12/10 15:02:05;;;;;;;10.57;5.28;;;;;;;1.08;87.75;99209.91;10523064;28;20380;-77
2021/12/10 15:07:23;;;;;;;19.38;7.40;;;;;;;1.12;87.95;99216.13;10522580;28;20113;-76
2021/12/10 15:12:45;;;;;;;10.57;6.68;;;;;;;1.01;88.19;99231.84;10540087;28;20031;-76
2021/12/10 15:17:46;;;;;;;14.95;5.68;;;;;;;0.99;88.12;99229.97;10481848;28;20038;-77
2021/12/10 15:22:47;;;;;;;11.73;5.47;;;;;;;1.04;88.42;99245.72;10507452;28;20037;-76
2021/12/10 15:27:52;;;;;;;10.23;5.53;;;;;;;1.02;88.81;99258.47;10476850;28;21526;-76
2021/12/10 15:32:58;;;;;;;7.95;4.88;;;;;;;0.96;88.48;99268.41;10490201;28;20841;-76
2021/12/10 15:38:10;;;;;;;9.20;5.03;;;;;;;0.88;88.64;99283.44;10537868;28;20020;-76
2021/12/10 15:43:15;;;;;;;17.83;6.13;;;;;;;0.84;88.94;99284.91;10518446;28;20040;-77
2021/12/10 15:48:16;;;;;;;11.73;5.72;;;;;;;0.88;89.21;99302.34;10519985;28;20491;-77
2021/12/10 15:53:20;;;;;;;10.18;5.50;;;;;;;0.96;89.13;99315.72;10521792;28;20115;-77
2021/12/10 15:58:24;;;;;;;12.57;5.63;;;;;;;0.94;89.66;99318.97;10537860;28;20032;-77
2021/12/10 16:03:25;;;;;;;12.18;5.95;;;;;;;0.93;89.54;99328.41;10501053;28;20424;-77
2021/12/10 16:08:40;;;;;;;9.40;6.10;;;;;;;0.88;89.87;99340.09;10519599;28;20391;-77
2021/12/10 16:13:42;;;;;;;20.70;7.03;;;;;;;0.85;89.13;99347.66;10538520;28;20043;-77
2021/12/10 16:18:45;;;;;;;14.07;6.75;;;;;;;0.86;89.99;99360.59;10517828;28;20024;-77
2021/12/10 16:23:55;;;;;;;18.80;6.85;;;;;;;0.87;89.56;99371.81;10469228;28;20025;-77
2021/12/10 16:29:01;;;;;;;16.73;8.57;;;;;;;0.87;90.28;99387.28;10520573;28;20040;-77
2021/12/10 16:34:08;;;;;;;15.10;7.13;;;;;;;0.87;89.92;99395.88;10521668;28;20113;-77
2021/12/10 16:39:09;;;;;;;14.35;8.45;;;;;;;0.87;90.17;99395.00;10518245;28;20038;-77
2021/12/10 16:44:13;;;;;;;12.40;7.95;;;;;;;0.86;90.42;99403.53;10480678;28;20052;-78
2021/12/10 16:49:18;;;;;;;13.85;9.90;;;;;;;0.85;90.54;99418.06;10491371;28;20060;-77
2021/12/10 16:54:29;;;;;;;11.63;8.25;;;;;;;0.85;90.76;99427.50;10506774;28;20021;-78
2021/12/10 16:59:30;;;;;;;12.77;7.30;;;;;;;0.87;90.75;99452.53;10491795;28;20043;-77
2021/12/10 17:04:32;;;;;;;19.08;9.52;;;;;;;0.88;90.54;99462.06;10467511;28;20028;-77
2021/12/10 17:09:33;;;;;;;13.90;9.18;;;;;;;0.88;90.63;99471.50;10455383;28;20025;-78
2021/12/10 17:14:37;;;;;;;20.13;9.85;;;;;;;0.87;90.93;99483.47;10477335;28;20033;-76
2021/12/10 17:19:47;;;;;;;36.58;15.18;;;;;;;0.88;91.13;99494.66;10483666;28;20028;-75
2021/12/10 17:24:52;;;;;;;20.95;11.98;;;;;;;0.88;91.03;99502.41;10487576;28;20465;-76
2021/12/10 17:29:59;;;;;;;23.30;12.52;;;;;;;0.87;91.37;99518.66;10492498;28;20064;-75
2021/12/10 17:35:05;;;;;;;24.77;14.57;;;;;;;0.86;91.01;99530.63;10475028;28;20056;-75
2021/12/10 17:40:06;;;;;;;29.92;16.17;;;;;;;0.89;91.53;99547.97;10480533;28;20111;-77
2021/12/10 17:45:15;;;;;;;27.38;16.92;;;;;;;1.03;91.13;99554.00;10542517;28;20462;-76
2021/12/10 17:50:31;;;;;;;28.90;18.52;;;;;;;1.12;91.48;99558.88;10538429;28;20055;-77
2021/12/10 17:55:33;;;;;;;32.97;18.85;;;;;;;1.10;91.42;99568.19;10514418;28;20027;-77
2021/12/10 18:00:49;;;;;;;37.03;21.73;;;;;;;1.07;91.18;99586.91;10539207;28;20032;-77
2021/12/10 18:05:50;;;;;;;38.55;20.23;;;;;;;1.11;90.97;99588.91;10521728;28;20036;-78
2021/12/10 18:10:52;;;;;;;32.90;19.42;;;;;;;1.07;91.32;99602.38;10523419;28;20027;-78
2021/12/10 18:15:56;;;;;;;43.90;24.02;;;;;;;1.07;91.36;99620.41;10514832;28;20043;-77
2021/12/10 18:21:00;;;;;;;41.33;22.70;;;;;;;1.02;90.89;99625.28;10544083;28;20494;-77
2021/12/10 18:26:04;;;;;;;34.22;24.35;;;;;;;1.04;91.28;99635.69;10523497;28;20024;-77
2021/12/10 18:31:09;;;;;;;40.25;24.23;;;;;;;1.03;90.98;99651.94;10500263;28;20114;-77
2021/12/10 18:36:16;;;;;;;43.67;25.48;;;;;;;1.00;91.14;99665.53;10508034;28;20020;-77
2021/12/10 18:41:17;;;;;;;46.10;26.75;;;;;;;1.07;91.22;99674.53;10509322;28;20432;-78
2021/12/10 18:46:20;;;;;;;44.38;29.23;;;;;;;1.08;91.53;99683.19;10508447;28;20111;-78
2021/12/10 18:51:27;;;;;;;39.13;27.35;;;;;;;1.02;91.73;99686.22;10522430;28;20030;-79
2021/12/10 18:56:53;;;;;;;50.05;27.35;;;;;;;1.00;91.35;99693.88;10525238;28;20040;-78
2021/12/10 19:02:04;;;;;;;46.55;27.33;;;;;;;1.00;91.58;99704.16;10498763;28;20024;-77
2021/12/10 19:07:07;;;;;;;50.88;29.48;;;;;;;0.98;91.83;99717.72;10463006;28;20117;-77
2021/12/10 19:12:19;;;;;;;44.40;27.83;;;;;;;0.96;91.94;99745.06;10499791;28;20024;-78
2021/12/10 19:17:33;;;;;;;52.72;31.30;;;;;;;0.99;92.12;99758.16;10542649;28;20035;-78
2021/12/10 19:22:36;;;;;;;53.00;33.80;;;;;;;0.99;92.02;99773.63;10522796;28;20024;-78
2021/12/10 19:27:40;;;;;;;55.45;32.88;;;;;;;1.01;91.84;99788.41;10488061;28;20524;-78
2021/12/10 19:32:42;;;;;;;59.40;33.58;;;;;;;1.07;91.49;99790.50;10498671;28;20075;-78
2021/12/10 19:37:55;;;;;;;52.20;34.20;;;;;;;1.03;91.83;99793.66;10501757;28;20024;-78
2021/12/10 19:43:24;;;;;;;65.18;30.25;;;;;;;1.01;91.54;99805.53;10523072;28;20071;-78
2021/12/10 19:48:30;;;;;;;52.00;33.78;;;;;;;0.94;91.75;99816.22;10520219;28;20066;-78
2021/12/10 19:53:36;;;;;;;52.83;29.27;;;;;;;0.89;91.94;99833.94;10517676;28;20028;-78
2021/12/10 19:58:41;;;;;;;49.90;30.60;;;;;;;0.86;91.79;99844.03;10520440;28;20025;-78
2021/12/10 20:03:43;;;;;;;44.38;29.58;;;;;;;0.83;91.99;99856.72;10520054;28;20032;-77
2021/12/10 20:08:59;;;;;;;52.45;33.53;;;;;;;0.78;91.98;99873.53;10519688;28;20026;-76
2021/12/10 20:14:09;;;;;;;49.63;29.65;;;;;;;0.78;92.30;99891.56;10521480;28;20545;-78
2021/12/10 20:19:15;;;;;;;46.45;32.00;;;;;;;0.77;92.11;99900.06;10521762;28;20024;-79
2021/12/10 20:24:40;;;;;;;58.10;32.13;;;;;;;0.74;92.46;99911.03;10520050;28;20032;-78
2021/12/10 20:29:47;;;;;;;47.42;32.92;;;;;;;0.75;92.21;99923.13;10539245;28;20439;-78
2021/12/10 20:34:49;;;;;;;59.38;34.72;;;;;;;0.74;92.62;99936.78;10521732;28;20047;-78
2021/12/10 20:39:52;;;;;;;55.40;35.50;;;;;;;0.72;92.79;99941.84;10520869;28;20369;-78
2021/12/10 20:45:03;;;;;;;58.10;33.80;;;;;;;0.72;92.51;99958.97;10519947;28;20442;-78
2021/12/10 20:50:07;;;;;;;61.30;36.15;;;;;;;0.71;92.29;99973.53;10503236;28;20030;-78
2021/12/10 20:55:23;;;;;;;68.53;39.13;;;;;;;0.72;92.91;99971.84;10537708;28;20032;-83
2021/12/10 21:00:32;;;;;;;59.13;36.95;;;;;;;0.70;92.88;99976.91;10502410;28;20063;-78
2021/12/10 21:05:42;;;;;;;54.05;36.03;;;;;;;0.71;92.67;99993.22;10502581;28;20078;-78
2021/12/10 21:10:49;;;;;;;52.15;33.10;;;;;;;0.69;93.07;100005.09;10517161;28;20043;-78
2021/12/10 21:15:52;;;;;;;47.45;31.45;;;;;;;0.68;92.68;100011.94;10486363;28;20158;-78
2021/12/10 21:20:59;;;;;;;54.22;33.85;;;;;;;0.67;92.80;100019.56;10536041;28;20475;-79
2021/12/10 21:26:12;;;;;;;59.70;34.33;;;;;;;0.66;92.98;100030.63;10487549;28;20529;-78
2021/12/10 21:31:15;;;;;;;56.33;35.85;;;;;;;0.66;93.36;100039.28;10537358;28;20028;-78
2021/12/10 21:36:33;;;;;;;57.97;33.50;;;;;;;0.69;93.07;100048.91;10535635;28;20081;-78
2021/12/10 21:41:36;;;;;;;62.10;37.05;;;;;;;0.69;93.08;100057.53;10520113;28;20114;-78
2021/12/10 21:46:42;;;;;;;59.22;39.10;;;;;;;0.70;93.09;100074.78;10503760;28;20074;-78
2021/12/10 21:51:49;;;;;;;62.22;41.15;;;;;;;0.68;93.31;100089.22;10518673;28;20032;-78
2021/12/10 21:56:52;;;;;;;62.80;37.45;;;;;;;0.69;93.02;100084.94;10487911;28;20032;-78
2021/12/10 22:02:28;;;;;;;66.55;41.60;;;;;;;0.64;93.08;100102.66;10517839;28;20032;-78
2021/12/10 22:07:34;;;;;;;64.03;39.85;;;;;;;0.55;93.21;100107.13;10498625;28;20136;-79
2021/12/10 22:13:19;;;;;;;60.70;38.85;;;;;;;0.34;93.18;100125.31;10481519;28;20115;-78
2021/12/10 22:18:24;;;;;;;68.47;37.65;;;;;;;0.07;92.53;100139.50;10488315;28;20047;-77
2021/12/10 22:23:25;;;;;;;48.53;34.75;;;;;;;-0.20;92.97;100140.03;10503824;28;20061;-78
2021/12/10 22:28:30;;;;;;;66.82;43.05;;;;;;;-0.52;92.51;100153.81;10526430;28;20521;-78
2021/12/10 22:33:31;;;;;;;60.90;39.92;;;;;;;-0.73;92.68;100159.78;10510721;28;20475;-77
2021/12/10 22:38:32;;;;;;;67.03;40.67;;;;;;;-0.91;92.06;100188.34;10542575;28;20024;-78
2021/12/10 22:43:47;;;;;;;69.88;39.63;;;;;;;-1.15;92.37;100197.47;10525675;28;20040;-78
2021/12/10 22:48:50;;;;;;;76.90;46.88;;;;;;;-1.24;92.49;100215.59;10543705;28;20032;-78
2021/12/10 22:53:55;;;;;;;76.32;44.30;;;;;;;-1.37;92.09;100226.47;10492032;28;20090;-77
2021/12/10 22:58:59;;;;;;;80.70;46.72;;;;;;;-1.38;92.68;100227.25;10482352;28;20028;-77
2021/12/10 23:04:31;;;;;;;78.07;47.33;;;;;;;-1.53;93.14;100243.13;10516264;28;20065;-77
2021/12/10 23:14:35;;;;;;;98.68;53.40;;;;;;;-1.88;92.95;100258.06;10524740;28;20040;-77
2021/12/10 23:19:50;;;;;;;93.25;51.08;;;;;;;-1.91;92.97;100279.19;10507749;28;20388;-77
2021/12/10 23:25:00;;;;;;;95.70;54.40;;;;;;;-1.92;92.82;100283.44;10541174;28;20379;-78
2021/12/10 23:30:13;;;;;;;105.40;57.38;;;;;;;-1.99;92.54;100290.44;10508448;28;20039;-78
2021/12/10 23:35:26;;;;;;;108.55;57.28;;;;;;;-2.16;92.82;100302.69;10516632;28;20047;-78
2021/12/10 23:40:36;;;;;;;102.40;60.90;;;;;;;-2.24;92.80;100314.81;10465921;28;20415;-78
2021/12/10 23:45:46;;;;;;;119.57;63.95;;;;;;;-2.26;92.73;100318.91;10492788;28;20068;-78
2021/12/10 23:50:49;;;;;;;140.73;69.40;;;;;;;-2.23;93.45;100334.56;10507051;28;20065;-79
2021/12/10 23:55:56;;;;;;;128.27;70.63;;;;;;;-2.22;92.75;100336.38;10493796;28;20438;-78
